createdAt,value
2022-07-28T00:01:50.114Z,16.00
2022-07-28T00:04:37.427Z,16.00
2022-07-28T00:07:31.067Z,16.00
2022-07-28T00:10:18.249Z,16.00
2022-07-28T00:13:12.008Z,16.00
2022-07-28T00:15:59.277Z,15.90
2022-07-28T00:18:53.075Z,15.90
2022-07-28T00:21:47.161Z,15.90
2022-07-28T00:24:34.628Z,15.90
2022-07-28T00:27:28.054Z,15.90
2022-07-28T00:30:15.115Z,15.80
2022-07-28T00:33:09.057Z,15.80
2022-07-28T00:36:03.052Z,15.70
2022-07-28T00:38:50.171Z,15.60
2022-07-28T00:41:45.042Z,15.60
2022-07-28T00:44:39.099Z,15.60
2022-07-28T00:47:33.914Z,15.50
2022-07-28T00:50:21.348Z,15.40
2022-07-28T00:53:15.077Z,15.40
2022-07-28T00:56:06.138Z,15.40
2022-07-28T00:59:00.135Z,15.40
2022-07-28T01:01:48.962Z,15.40
2022-07-28T01:04:43.149Z,15.30
2022-07-28T01:08:02.172Z,15.30
2022-07-28T01:11:11.161Z,15.30
2022-07-28T01:14:28.146Z,15.30
2022-07-28T01:17:26.507Z,15.20
2022-07-28T01:20:29.148Z,15.20
2022-07-28T01:23:59.136Z,15.10
2022-07-28T01:27:11.122Z,15.10
2022-07-28T01:30:05.140Z,15.00
2022-07-28T01:33:09.129Z,15.10
2022-07-28T01:36:06.663Z,15.00
2022-07-28T01:39:01.151Z,15.00
2022-07-28T01:41:50.210Z,15.10
2022-07-28T01:44:50.234Z,15.10
2022-07-28T01:47:38.863Z,15.10
2022-07-28T01:50:35.152Z,15.10
2022-07-28T01:53:24.423Z,15.00
2022-07-28T01:56:22.163Z,15.00
2022-07-28T01:59:12.162Z,15.00
2022-07-28T02:02:07.191Z,15.00
2022-07-28T02:05:04.283Z,15.00
2022-07-28T02:08:00.272Z,15.00
2022-07-28T02:11:15.228Z,15.00
2022-07-28T02:14:17.655Z,15.00
2022-07-28T02:17:21.201Z,15.00
2022-07-28T02:20:10.976Z,15.00
2022-07-28T02:23:05.200Z,15.00
2022-07-28T02:26:01.198Z,15.00
2022-07-28T02:28:53.341Z,15.00
2022-07-28T02:32:40.873Z,15.00
2022-07-28T02:35:52.233Z,14.90
2022-07-28T02:38:49.475Z,14.90
2022-07-28T02:41:48.241Z,14.80
2022-07-28T02:44:43.500Z,14.80
2022-07-28T02:47:41.280Z,14.80
2022-07-28T02:50:29.476Z,14.70
2022-07-28T02:53:24.248Z,14.70
2022-07-28T02:56:12.338Z,14.70
2022-07-28T02:59:07.251Z,14.70
2022-07-28T03:01:55.903Z,14.80
2022-07-28T03:05:11.390Z,14.80
2022-07-28T03:08:06.335Z,14.80
2022-07-28T03:11:10.354Z,14.80
2022-07-28T03:14:04.344Z,14.80
2022-07-28T03:16:58.313Z,14.80
2022-07-28T03:19:52.334Z,14.80
2022-07-28T03:22:46.306Z,14.80
2022-07-28T03:25:47.342Z,14.80
2022-07-28T03:28:35.976Z,14.80
2022-07-28T03:31:32.298Z,14.80
2022-07-28T03:34:26.337Z,14.80
2022-07-28T03:37:23.323Z,14.70
2022-07-28T03:40:19.346Z,14.70
2022-07-28T03:43:17.391Z,14.70
2022-07-28T03:46:05.827Z,14.60
2022-07-28T03:49:02.449Z,14.60
2022-07-28T03:51:49.653Z,14.50
2022-07-28T03:54:43.395Z,14.60
2022-07-28T03:57:37.405Z,14.60
2022-07-28T04:00:25.908Z,14.60
2022-07-28T04:03:35.317Z,14.60
2022-07-28T04:06:33.378Z,14.50
2022-07-28T04:09:20.492Z,14.60
2022-07-28T04:12:14.491Z,14.50
2022-07-28T04:15:02.515Z,14.50
2022-07-28T04:17:57.355Z,14.60
2022-07-28T04:20:51.385Z,14.60
2022-07-28T04:23:45.414Z,14.60
2022-07-28T04:26:39.417Z,14.60
2022-07-28T04:29:27.315Z,14.60
2022-07-28T04:32:21.445Z,14.60
2022-07-28T04:35:11.209Z,14.60
2022-07-28T04:38:07.402Z,14.60
2022-07-28T04:40:55.574Z,14.60
2022-07-28T04:43:49.414Z,14.50
2022-07-28T04:46:36.503Z,14.50
2022-07-28T04:49:30.409Z,14.50
2022-07-28T04:52:30.432Z,14.50
2022-07-28T04:55:24.427Z,14.40
2022-07-28T04:58:12.553Z,14.40
2022-07-28T05:01:06.566Z,14.40
2022-07-28T05:04:00.438Z,14.50
2022-07-28T05:06:54.506Z,14.50
2022-07-28T05:09:48.447Z,14.60
2022-07-28T05:12:36.051Z,14.70
2022-07-28T05:15:29.541Z,14.70
2022-07-28T05:18:16.658Z,14.80
2022-07-28T05:21:10.463Z,14.80
2022-07-28T05:24:04.303Z,14.80
2022-07-28T05:26:57.481Z,14.90
2022-07-28T05:29:47.108Z,14.90
2022-07-28T05:32:41.485Z,15.00
2022-07-28T05:35:36.502Z,15.10
2022-07-28T05:38:25.521Z,15.20
2022-07-28T05:41:19.491Z,15.40
2022-07-28T05:44:13.707Z,15.50
2022-07-28T05:47:01.080Z,15.60
2022-07-28T05:49:54.535Z,15.70
2022-07-28T05:52:41.883Z,15.70
2022-07-28T05:55:35.515Z,15.80
2022-07-28T05:58:42.642Z,15.90
2022-07-28T06:01:41.588Z,15.90
2022-07-28T06:04:29.439Z,15.90
2022-07-28T06:07:23.580Z,15.90
2022-07-28T06:10:50.878Z,15.90
2022-07-28T06:13:45.554Z,15.90
2022-07-28T06:16:32.688Z,15.90
2022-07-28T06:19:26.589Z,15.90
2022-07-28T06:22:15.607Z,15.90
2022-07-28T06:25:09.589Z,15.90
2022-07-28T06:27:58.482Z,15.90
2022-07-28T06:31:03.776Z,15.90
2022-07-28T06:33:51.021Z,16.00
2022-07-28T06:36:44.576Z,16.00
2022-07-28T06:39:38.580Z,16.10
2022-07-28T06:42:25.820Z,16.20
2022-07-28T06:45:21.827Z,16.30
2022-07-28T06:48:15.673Z,16.40
2022-07-28T06:51:02.852Z,16.40
2022-07-28T06:53:56.656Z,16.50
2022-07-28T06:56:50.650Z,16.60
2022-07-28T06:59:37.704Z,16.60
2022-07-28T07:02:31.660Z,16.70
2022-07-28T07:05:25.604Z,16.70
2022-07-28T07:08:19.669Z,16.70
2022-07-28T07:11:13.642Z,16.70
2022-07-28T07:14:07.695Z,16.70
2022-07-28T07:16:54.850Z,16.60
2022-07-28T07:19:48.665Z,16.60
2022-07-28T07:22:41.535Z,16.60
2022-07-28T07:25:35.651Z,16.50
2022-07-28T07:28:22.903Z,16.50
2022-07-28T07:31:16.763Z,16.50
2022-07-28T07:34:10.800Z,16.50
2022-07-28T07:37:04.725Z,16.50
2022-07-28T07:39:58.651Z,16.60
2022-07-28T07:42:45.749Z,16.60
2022-07-28T07:45:40.717Z,16.70
2022-07-28T07:48:27.855Z,16.80
2022-07-28T07:51:21.713Z,16.80
2022-07-28T07:54:09.927Z,17.00
2022-07-28T07:57:03.920Z,17.10
2022-07-28T07:59:51.036Z,17.20
2022-07-28T08:02:48.911Z,17.20
2022-07-28T08:05:43.753Z,17.20
2022-07-28T08:08:32.463Z,17.30
2022-07-28T08:11:27.780Z,17.40
2022-07-28T08:14:21.750Z,17.50
2022-07-28T08:17:08.852Z,17.70
2022-07-28T08:20:02.746Z,17.80
2022-07-28T08:22:52.258Z,17.90
2022-07-28T08:25:45.810Z,18.10
2022-07-28T08:28:32.868Z,18.30
2022-07-28T08:31:28.787Z,18.50
2022-07-28T08:34:28.455Z,18.50
2022-07-28T08:37:20.634Z,18.70
2022-07-28T08:40:23.473Z,19.00
2022-07-28T08:43:23.919Z,19.20
2022-07-28T08:46:18.881Z,19.30
2022-07-28T08:49:10.047Z,19.30
2022-07-28T08:52:05.832Z,19.60
2022-07-28T08:55:01.802Z,19.70
2022-07-28T08:57:50.055Z,19.90
2022-07-28T09:00:43.837Z,20.10
2022-07-28T09:03:31.213Z,20.20
2022-07-28T09:06:28.905Z,20.30
2022-07-28T09:09:22.813Z,20.30
2022-07-28T09:12:09.977Z,20.40
2022-07-28T09:15:03.863Z,20.50
2022-07-28T09:17:50.968Z,20.50
2022-07-28T09:20:45.279Z,20.70
2022-07-28T09:23:49.899Z,20.80
2022-07-28T09:26:37.108Z,20.90
2022-07-28T09:29:31.941Z,20.90
2022-07-28T09:32:27.079Z,20.90
2022-07-28T09:35:27.866Z,20.90
2022-07-28T09:38:15.624Z,21.10
2022-07-28T09:41:14.893Z,21.10
2022-07-28T09:44:01.977Z,21.10
2022-07-28T09:46:57.134Z,21.00
2022-07-28T09:49:44.750Z,21.10
2022-07-28T09:52:43.922Z,21.10
2022-07-28T09:55:35.264Z,21.30
2022-07-28T09:58:28.911Z,21.40
2022-07-28T10:01:35.129Z,21.60
2022-07-28T10:04:35.892Z,21.90
2022-07-28T10:07:29.966Z,22.10
2022-07-28T10:10:21.667Z,22.20
2022-07-28T10:13:14.909Z,22.30
2022-07-28T10:16:19.000Z,22.30
2022-07-28T10:19:12.972Z,22.30
2022-07-28T10:22:01.870Z,22.40
2022-07-28T10:24:58.960Z,22.70
2022-07-28T10:27:54.955Z,23.00
2022-07-28T10:30:42.901Z,23.10
2022-07-28T10:33:38.958Z,23.30
2022-07-28T10:36:33.986Z,23.60
2022-07-28T10:39:30.984Z,23.80
2022-07-28T10:42:20.569Z,23.80
2022-07-28T10:45:17.975Z,23.80
2022-07-28T10:48:12.997Z,23.80
2022-07-28T10:51:01.722Z,23.90
2022-07-28T10:54:09.985Z,23.90
2022-07-28T10:56:59.963Z,24.00
2022-07-28T11:00:13.550Z,24.10
2022-07-28T11:03:02.256Z,24.00
2022-07-28T11:06:32.996Z,23.90
2022-07-28T11:09:20.813Z,23.70
2022-07-28T11:12:15.044Z,23.60
2022-07-28T11:15:18.193Z,23.50
2022-07-28T11:18:15.077Z,23.60
2022-07-28T11:21:09.396Z,23.70
2022-07-28T11:24:04.091Z,23.80
2022-07-28T11:26:54.241Z,24.00
2022-07-28T11:29:54.062Z,24.20
2022-07-28T11:32:50.218Z,24.30
2022-07-28T11:35:47.035Z,24.30
2022-07-28T11:38:34.113Z,24.20
2022-07-28T11:41:37.078Z,24.30
2022-07-28T11:44:27.923Z,24.20
2022-07-28T11:47:26.089Z,23.80
2022-07-28T11:50:17.270Z,23.60
2022-07-28T11:53:11.058Z,23.70
2022-07-28T11:56:05.093Z,23.90
2022-07-28T11:59:00.086Z,23.90
2022-07-28T12:02:01.169Z,23.90
2022-07-28T12:05:10.150Z,23.90
2022-07-28T12:08:11.102Z,23.90
2022-07-28T12:10:58.512Z,24.20
2022-07-28T12:13:53.112Z,24.60
2022-07-28T12:16:52.290Z,25.00
2022-07-28T12:19:40.691Z,25.40
2022-07-28T12:22:35.181Z,25.60
2022-07-28T12:25:31.111Z,25.80
2022-07-28T12:28:20.037Z,25.70
2022-07-28T12:31:21.222Z,25.90
2022-07-28T12:34:12.643Z,26.10
2022-07-28T12:37:12.154Z,26.10
2022-07-28T12:40:02.268Z,26.20
2022-07-28T12:43:00.145Z,26.00
2022-07-28T12:45:48.162Z,25.80
2022-07-28T12:48:46.182Z,25.60
2022-07-28T12:51:44.393Z,25.50
2022-07-28T12:54:43.185Z,25.60
2022-07-28T12:57:50.949Z,25.60
2022-07-28T13:00:56.224Z,25.30
2022-07-28T13:03:54.187Z,24.80
2022-07-28T13:06:42.027Z,24.30
2022-07-28T13:09:36.212Z,24.40
2022-07-28T13:12:31.250Z,24.80
2022-07-28T13:15:25.255Z,25.20
2022-07-28T13:18:19.247Z,25.50
2022-07-28T13:21:06.447Z,25.60
2022-07-28T13:24:43.074Z,25.60
2022-07-28T13:27:38.987Z,25.80
2022-07-28T13:30:33.042Z,25.80
2022-07-28T13:33:20.425Z,25.60
2022-07-28T13:36:15.058Z,25.60
2022-07-28T13:39:09.091Z,25.60
2022-07-28T13:42:05.602Z,25.60
2022-07-28T13:44:52.955Z,25.50
2022-07-28T13:47:47.077Z,25.50
2022-07-28T13:50:39.644Z,25.70
2022-07-28T13:53:33.045Z,25.90
2022-07-28T13:56:27.086Z,25.70
2022-07-28T13:59:21.069Z,25.60
2022-07-28T14:02:20.069Z,25.70
2022-07-28T14:05:14.100Z,25.70
2022-07-28T14:08:02.552Z,25.90
2022-07-28T14:10:59.080Z,25.80
2022-07-28T14:13:53.069Z,25.50
2022-07-28T14:16:48.305Z,25.40
2022-07-28T14:19:42.067Z,25.30
2022-07-28T14:22:39.336Z,25.30
2022-07-28T14:25:26.765Z,25.40
2022-07-28T14:28:20.104Z,25.60
2022-07-28T14:31:07.356Z,26.10
2022-07-28T14:34:06.120Z,26.80
2022-07-28T14:37:00.180Z,27.50
2022-07-28T14:39:50.583Z,27.70
2022-07-28T14:42:44.120Z,27.60
2022-07-28T14:45:32.714Z,27.40
2022-07-28T14:48:46.274Z,27.30
2022-07-28T14:51:44.552Z,27.20
2022-07-28T14:54:40.167Z,27.40
2022-07-28T14:57:50.165Z,27.60
2022-07-28T15:00:41.382Z,27.70
2022-07-28T15:03:36.659Z,27.90
2022-07-28T15:06:30.157Z,28.10
2022-07-28T15:09:24.198Z,28.10
2022-07-28T15:12:11.393Z,28.00
2022-07-28T15:15:05.248Z,27.70
2022-07-28T15:18:02.228Z,27.30
2022-07-28T15:20:49.757Z,26.90
2022-07-28T15:23:43.267Z,26.50
2022-07-28T15:26:30.380Z,26.20
2022-07-28T15:29:35.258Z,25.90
2022-07-28T15:32:29.193Z,25.70
2022-07-28T15:35:24.269Z,25.40
2022-07-28T15:38:11.605Z,25.20
2022-07-28T15:41:05.219Z,25.00
2022-07-28T15:43:59.341Z,25.00
2022-07-28T15:46:46.852Z,25.10
2022-07-28T15:49:40.404Z,25.10
2022-07-28T15:52:27.515Z,25.00
2022-07-28T15:55:21.233Z,24.70
2022-07-28T15:58:08.401Z,24.50
2022-07-28T16:01:02.359Z,24.40
2022-07-28T16:03:50.078Z,24.30
2022-07-28T16:07:02.362Z,24.10
2022-07-28T16:10:02.326Z,23.90
2022-07-28T16:12:50.280Z,23.90
2022-07-28T16:15:46.721Z,23.90
2022-07-28T16:18:41.390Z,23.80
2022-07-28T16:21:36.268Z,23.90
2022-07-28T16:24:30.267Z,23.80
2022-07-28T16:27:17.469Z,23.60
2022-07-28T16:30:12.370Z,23.60
2022-07-28T16:32:59.507Z,23.50
2022-07-28T16:35:53.406Z,23.50
2022-07-28T16:38:40.546Z,23.40
2022-07-28T16:41:47.806Z,23.20
2022-07-28T16:44:37.629Z,23.00
2022-07-28T16:47:31.313Z,22.90
2022-07-28T16:50:18.951Z,22.80
2022-07-28T16:53:15.353Z,22.80
2022-07-28T16:56:02.479Z,22.80
2022-07-28T16:58:56.365Z,22.80
2022-07-28T17:01:46.226Z,22.80
2022-07-28T17:04:40.458Z,22.90
2022-07-28T17:07:27.742Z,22.90
2022-07-28T17:10:27.271Z,22.90
2022-07-28T17:13:16.170Z,22.90
2022-07-28T17:16:11.431Z,22.90
2022-07-28T17:19:05.360Z,22.80
2022-07-28T17:21:52.439Z,22.80
2022-07-28T17:24:47.450Z,22.80
2022-07-28T17:27:47.709Z,22.80
2022-07-28T17:30:35.568Z,22.80
2022-07-28T17:33:29.397Z,22.80
2022-07-28T17:36:18.452Z,22.80
2022-07-28T17:39:13.466Z,22.70
2022-07-28T17:42:07.401Z,22.60
2022-07-28T17:44:56.310Z,22.60
2022-07-28T17:47:50.396Z,22.60
2022-07-28T17:50:37.629Z,22.50
2022-07-28T17:53:39.599Z,22.30
2022-07-28T17:56:33.470Z,22.20
2022-07-28T17:59:21.498Z,22.10
2022-07-28T18:02:15.519Z,22.10
2022-07-28T18:05:10.135Z,22.00
2022-07-28T18:08:05.450Z,22.00
2022-07-28T18:11:00.451Z,22.00
2022-07-28T18:14:03.644Z,22.00
2022-07-28T18:16:52.359Z,22.00
2022-07-28T18:19:46.461Z,21.90
2022-07-28T18:22:33.629Z,21.90
2022-07-28T18:25:27.516Z,21.90
2022-07-28T18:28:23.478Z,21.80
2022-07-28T18:31:17.675Z,21.80
2022-07-28T18:34:04.890Z,21.70
2022-07-28T18:36:59.511Z,21.60
2022-07-28T18:39:53.502Z,21.60
2022-07-28T18:42:48.497Z,21.60
2022-07-28T18:45:42.506Z,21.50
2022-07-28T18:48:36.531Z,21.40
2022-07-28T18:51:30.524Z,21.30
2022-07-28T18:54:27.392Z,21.20
2022-07-28T18:57:15.158Z,21.20
2022-07-28T19:00:09.539Z,21.10
2022-07-28T19:03:03.694Z,21.00
2022-07-28T19:05:51.436Z,21.00
2022-07-28T19:08:45.585Z,20.90
2022-07-28T19:11:45.682Z,20.80
2022-07-28T19:14:40.578Z,20.70
2022-07-28T19:17:27.799Z,20.70
2022-07-28T19:20:21.580Z,20.60
2022-07-28T19:23:15.559Z,20.50
2022-07-28T19:26:03.826Z,20.50
2022-07-28T19:28:57.621Z,20.40
2022-07-28T19:31:45.835Z,20.30
2022-07-28T19:34:39.569Z,20.20
2022-07-28T19:37:27.097Z,20.20
2022-07-28T19:40:20.559Z,20.10
2022-07-28T19:43:14.617Z,20.10
2022-07-28T19:46:02.570Z,20.00
2022-07-28T19:48:56.660Z,19.90
2022-07-28T19:51:44.050Z,19.90
2022-07-28T19:54:37.608Z,19.80
2022-07-28T19:57:31.616Z,19.80
2022-07-28T20:00:19.133Z,19.70
2022-07-28T20:04:00.612Z,19.60
2022-07-28T20:06:24.949Z,19.50
2022-07-28T20:09:19.622Z,19.50
2022-07-28T20:12:08.748Z,19.50
2022-07-28T20:15:03.693Z,19.40
2022-07-28T20:17:57.781Z,19.40
2022-07-28T20:20:48.925Z,19.30
2022-07-28T20:23:44.684Z,19.30
2022-07-28T20:26:31.949Z,19.20
2022-07-28T20:29:25.689Z,19.20
2022-07-28T20:32:12.760Z,19.20
2022-07-28T20:35:07.714Z,19.10
2022-07-28T20:37:55.007Z,19.10
2022-07-28T20:40:48.687Z,19.10
2022-07-28T20:43:37.115Z,19.10
2022-07-28T20:46:31.818Z,19.10
2022-07-28T20:49:19.035Z,19.10
2022-07-28T20:52:13.668Z,19.10
2022-07-28T20:55:07.695Z,19.00
2022-07-28T20:57:57.833Z,19.10
2022-07-28T21:00:51.776Z,19.00
2022-07-28T21:03:45.777Z,19.00
2022-07-28T21:06:52.099Z,19.00
2022-07-28T21:09:46.727Z,18.90
2022-07-28T21:12:40.809Z,18.90
2022-07-28T21:15:34.831Z,18.90
2022-07-28T21:18:28.789Z,18.90
2022-07-28T21:21:28.760Z,18.80
2022-07-28T21:24:16.347Z,18.80
2022-07-28T21:27:10.822Z,18.80
2022-07-28T21:32:50.858Z,18.70
2022-07-28T21:35:44.755Z,18.70
2022-07-28T21:38:38.865Z,18.70
2022-07-28T21:41:36.452Z,18.60
2022-07-28T21:44:24.180Z,18.50
2022-07-28T21:47:17.788Z,18.50
2022-07-28T21:50:11.846Z,18.40
2022-07-28T21:53:00.738Z,18.40
2022-07-28T21:55:54.795Z,18.30
2022-07-28T21:58:49.876Z,18.30
2022-07-28T22:01:37.048Z,18.30
2022-07-28T22:04:30.867Z,18.20
2022-07-28T22:07:18.299Z,18.20
2022-07-28T22:10:12.818Z,18.10
2022-07-28T22:13:00.670Z,18.10
2022-07-28T22:15:54.866Z,18.20
2022-07-28T22:18:41.980Z,18.20
2022-07-28T22:21:35.829Z,18.20
2022-07-28T22:24:23.281Z,18.20
2022-07-28T22:27:16.884Z,18.10
2022-07-28T22:30:05.052Z,18.10
2022-07-28T22:32:59.201Z,18.00
2022-07-28T22:35:47.242Z,18.00
2022-07-28T22:38:40.926Z,18.00
2022-07-28T22:41:28.065Z,18.00
2022-07-28T22:44:21.867Z,18.00
2022-07-28T22:47:08.976Z,17.90
2022-07-28T22:50:02.952Z,17.90
2022-07-28T22:52:50.182Z,17.90
2022-07-28T22:58:54.968Z,17.70
2022-07-28T23:01:49.953Z,17.70
2022-07-28T23:04:37.076Z,17.60
2022-07-28T23:07:52.945Z,17.60
2022-07-28T23:10:38.354Z,17.60
2022-07-28T23:13:32.007Z,17.50
2022-07-28T23:16:26.177Z,17.60
2022-07-28T23:19:20.040Z,17.50
2022-07-28T23:22:07.189Z,17.50
2022-07-28T23:25:01.045Z,17.50
2022-07-28T23:27:48.204Z,17.50
2022-07-28T23:30:42.050Z,17.50
2022-07-28T23:33:55.164Z,17.50
2022-07-28T23:36:43.202Z,17.40
2022-07-28T23:39:37.030Z,17.40
2022-07-28T23:42:24.183Z,17.40
2022-07-28T23:45:17.978Z,17.40
2022-07-28T23:48:11.979Z,17.40
2022-07-28T23:50:59.743Z,17.40
2022-07-28T23:53:56.305Z,17.30
2022-07-28T23:56:50.075Z,17.30
2022-07-28T23:59:37.272Z,17.30
